Saffell, Arkansas
Current Conditions -  °F | °C
As of 7:56 PM on Monday 24 Nov 2014 (Local Time) from KM19 Reporting Station
Clear Clear  
Wind Chill: 44°   Ceiling: Unl
Heat Index: 47°   Visibility: 10mi
Dew Point: 30°   Wind: 7mph
Humidity: 52%   Direction: 260°W
Pressure: 30.02"   Gusts: NA
Location:  35.92°N, 91.29°W
Report Text: KM19 250156Z AUTO 26006KT 10SM CLR 08/M01 A3002 RMK AO2 T00831011 SLP165
Loading
Personal Weather Stations






























Interactive Weather Map New forecast layout! Learn more

10-Day Weather Forecast

Advertisements
Track Severe Weather on mobile